Information Last Ob Photographs Calibration Meteogram Network Table Neighbors Monthly Summaries Observation History Wind Roses Custom Wind Roses Data Calendar Satellite Cloud Product Download

Most Recent Observation

This application displays the last observation received by the IEM from this site. The time stamp is in America/Chicago timezone.

Observation Local Time19 Apr 2024, 5:35 PM
Observation UTC Time2024-04-19T22:35:00Z
Air Temp [F]53.8
Maximum Air Temperature [F]56.7
Minimum Air Temperature [F]32
Dew Point [F]24.6
Wind DirectionWNW (300 degrees)
Wind Speed [knots]17
Altimeter [inches]30.21
Raw Observation/ProductKPRO 192235Z AUTO 30017G27KT 10SM CLR 12/M04 A3021 RMK AO2 T01211041
Cloud Layer 1: CLR ( feet)

This data was provided by a JSON(P) webservice. You can find more JSON services.